Time;durP1;ratioP1;P1;durP2;ratioP2;P2;SDS_P1;SDS_P2;PMS_P1;PMS_P2;Temp;Humidity;BMP_temperature;BMP_pressure;BME280_temperature;BME280_humidity;BME280_pressure;Samples;Min_cycle;Max_cycle;Signal;HPM_P1;HPM_P2
2024/04/06 00:00:47;;;;;;;;;;;;;;;21.49;28.75;98347.31;5006944;28;2633;-75
2024/04/06 00:03:13;;;;;;;;;;;;;;;21.45;28.72;98343.75;4997925;28;925;-75
2024/04/06 00:05:39;;;;;;;;;;;;;;;21.38;28.63;98353.19;5013661;28;1603;-75
2024/04/06 00:08:04;;;;;;;;;;;;;;;21.10;29.41;98360.19;5033513;28;1149;-75
2024/04/06 00:10:30;;;;;;;;;;;;;;;21.31;28.91;98354.16;5033679;28;996;-75
2024/04/06 00:12:55;;;;;;;;;;;;;;;21.32;28.89;98360.59;5017050;28;1158;-75
2024/04/06 00:15:21;;;;;;;;;;;;;;;21.32;29.09;98364.22;5017291;28;956;-75
2024/04/06 00:17:47;;;;;;;;;;;;;;;21.37;28.95;98364.97;5052399;28;1471;-75
2024/04/06 00:20:12;;;;;;;;;;;;;;;21.29;29.03;98372.75;5069790;28;1906;-75
2024/04/06 00:22:38;;;;;;;;;;;;;;;21.12;29.32;98362.59;5069864;28;1046;-75
2024/04/06 00:25:04;;;;;;;;;;;;;;;21.13;29.10;98364.97;5070084;28;931;-75
2024/04/06 00:27:31;;;;;;;;;;;;;;;21.28;29.05;98365.50;5053024;28;1313;-75
2024/04/06 00:29:56;;;;;;;;;;;;;;;21.20;29.05;98359.19;5090134;28;973;-75
2024/04/06 00:32:22;;;;;;;;;;;;;;;21.37;28.80;98347.97;5073154;28;1028;-75
2024/04/06 00:34:47;;;;;;;;;;;;;;;21.44;28.63;98359.16;5090059;28;1010;-75
2024/04/06 00:37:13;;;;;;;;;;;;;;;21.58;28.40;98362.50;5089185;28;1505;-75
2024/04/06 00:39:39;;;;;;;;;;;;;;;21.44;28.71;98362.78;5059686;28;1000;-75
2024/04/06 00:42:04;;;;;;;;;;;;;;;21.23;29.05;98380.16;5054016;28;1906;-75
2024/04/06 00:44:30;;;;;;;;;;;;;;;21.45;28.69;98380.56;5087881;28;961;-75
2024/04/06 00:46:58;;;;;;;;;;;;;;;21.27;29.21;98389.38;5053911;28;1650;-75
2024/04/06 00:49:23;;;;;;;;;;;;;;;21.39;28.82;98385.13;5060449;28;923;-75
2024/04/06 00:51:49;;;;;;;;;;;;;;;21.33;29.00;98390.50;5055234;28;965;-75
2024/04/06 00:54:14;;;;;;;;;;;;;;;21.51;28.81;98390.97;5087927;28;1204;-75
2024/04/06 00:56:40;;;;;;;;;;;;;;;21.21;29.19;98400.41;5060969;28;1394;-75
2024/04/06 00:59:06;;;;;;;;;;;;;;;21.37;28.83;98402.56;5068101;28;1475;-75
2024/04/06 01:01:31;;;;;;;;;;;;;;;21.24;29.39;98410.03;5053791;28;1910;-75
2024/04/06 01:03:57;;;;;;;;;;;;;;;21.42;29.08;98404.09;5070937;28;1183;-75
2024/04/06 01:06:22;;;;;;;;;;;;;;;21.47;28.93;98400.75;5055242;28;1260;-75
2024/04/06 01:08:48;;;;;;;;;;;;;;;21.44;29.08;98390.28;5091156;28;987;-75
2024/04/06 01:11:13;;;;;;;;;;;;;;;21.43;28.74;98383.03;5073918;28;1450;-75
2024/04/06 01:13:39;;;;;;;;;;;;;;;21.58;28.69;98390.81;5070851;28;963;-75
2024/04/06 01:16:05;;;;;;;;;;;;;;;21.41;28.68;98391.19;5037926;28;1163;-76
2024/04/06 01:18:30;;;;;;;;;;;;;;;21.43;28.93;98395.16;5070817;28;1011;-75
2024/04/06 01:20:57;;;;;;;;;;;;;;;21.66;28.68;98387.81;5083707;28;1968;-75
2024/04/06 01:23:23;;;;;;;;;;;;;;;21.46;28.92;98387.84;5057614;28;972;-75
2024/04/06 01:25:48;;;;;;;;;;;;;;;21.49;28.78;98387.75;5096309;28;896;-76
2024/04/06 01:28:14;;;;;;;;;;;;;;;21.38;28.74;98386.38;5096608;28;936;-75
2024/04/06 01:30:40;;;;;;;;;;;;;;;21.31;29.11;98390.16;5067862;28;1361;-75
2024/04/06 01:33:05;;;;;;;;;;;;;;;21.38;29.02;98395.66;5059818;28;1025;-75
2024/04/06 01:35:31;;;;;;;;;;;;;;;21.84;28.24;98394.72;5042948;28;1652;-75
2024/04/06 01:37:56;;;;;;;;;;;;;;;21.55;28.76;98379.53;5059566;28;1099;-75
2024/04/06 01:40:22;;;;;;;;;;;;;;;21.59;28.53;98385.94;5075614;28;1975;-75
2024/04/06 01:42:47;;;;;;;;;;;;;;;21.65;28.54;98378.53;5059387;28;1077;-75
2024/04/06 01:45:13;;;;;;;;;;;;;;;21.37;29.16;98384.78;5059239;28;938;-75
2024/04/06 01:47:38;;;;;;;;;;;;;;;21.67;28.64;98384.56;5019449;28;1143;-75
2024/04/06 01:50:07;;;;;;;;;;;;;;;21.22;29.48;98379.34;5024396;28;1511;-75
2024/04/06 01:52:32;;;;;;;;;;;;;;;21.41;29.27;98379.84;5022697;28;1126;-75
2024/04/06 01:54:59;;;;;;;;;;;;;;;21.53;28.84;98379.19;5039269;28;999;-75
2024/04/06 01:57:24;;;;;;;;;;;;;;;21.70;28.76;98378.00;5023972;28;996;-75
2024/04/06 01:59:50;;;;;;;;;;;;;;;21.87;28.55;98366.75;5048448;28;1503;-75
2024/04/06 02:02:15;;;;;;;;;;;;;;;21.26;29.25;98363.09;5015928;28;1914;-75
2024/04/06 02:04:41;;;;;;;;;;;;;;;21.35;29.10;98364.59;4999735;28;1088;-75
2024/04/06 02:07:08;;;;;;;;;;;;;;;21.46;28.92;98362.34;4999440;28;1321;-75
2024/04/06 02:09:33;;;;;;;;;;;;;;;21.32;29.25;98350.06;5016485;28;1570;-75
2024/04/06 02:11:59;;;;;;;;;;;;;;;21.53;29.04;98356.53;5052511;28;1024;-75
2024/04/06 02:14:24;;;;;;;;;;;;;;;21.43;29.28;98343.41;5019009;28;1201;-75
2024/04/06 02:16:51;;;;;;;;;;;;;;;21.21;29.48;98343.00;5051865;28;997;-76
2024/04/06 02:19:16;;;;;;;;;;;;;;;21.46;28.80;98345.38;5038111;28;1421;-75
2024/04/06 02:21:42;;;;;;;;;;;;;;;21.20;29.19;98347.88;5069862;28;1993;-75
2024/04/06 02:24:07;;;;;;;;;;;;;;;21.39;29.14;98345.50;5068868;28;1123;-75
2024/04/06 02:26:33;;;;;;;;;;;;;;;21.33;29.31;98346.00;5038013;28;945;-75
2024/04/06 02:28:59;;;;;;;;;;;;;;;21.43;29.03;98343.41;5048042;28;1499;-75
2024/04/06 02:31:24;;;;;;;;;;;;;;;21.35;29.24;98339.09;5056508;28;1027;-75
2024/04/06 02:33:50;;;;;;;;;;;;;;;21.42;29.05;98341.81;5072930;28;1244;-75
2024/04/06 02:36:15;;;;;;;;;;;;;;;21.33;29.18;98348.03;5057802;28;976;-75
2024/04/06 02:38:42;;;;;;;;;;;;;;;21.50;28.85;98337.59;5057209;28;1372;-74
2024/04/06 02:41:08;;;;;;;;;;;;;;;21.29;29.15;98339.59;5039606;28;1902;-75
2024/04/06 02:43:34;;;;;;;;;;;;;;;21.58;28.65;98336.22;5089704;28;975;-75
2024/04/06 02:45:59;;;;;;;;;;;;;;;21.33;29.41;98334.69;5056307;28;1116;-76
2024/04/06 02:48:25;;;;;;;;;;;;;;;21.33;29.34;98340.34;5055401;28;1427;-75
2024/04/06 02:50:50;;;;;;;;;;;;;;;21.32;28.91;98344.41;5055822;28;1196;-75
2024/04/06 02:53:16;;;;;;;;;;;;;;;21.21;29.35;98343.81;5089715;28;1300;-75
2024/04/06 02:55:42;;;;;;;;;;;;;;;21.40;29.06;98338.59;5039433;28;1241;-75
2024/04/06 02:58:08;;;;;;;;;;;;;;;21.52;28.88;98329.47;5056659;28;1335;-75
2024/04/06 03:00:34;;;;;;;;;;;;;;;21.36;29.01;98321.72;5055412;28;1902;-76
2024/04/06 03:03:00;;;;;;;;;;;;;;;21.26;29.27;98323.50;5072615;28;1121;-75
2024/04/06 03:05:25;;;;;;;;;;;;;;;21.25;29.18;98327.56;5055666;28;1305;-75
2024/04/06 03:07:51;;;;;;;;;;;;;;;21.28;29.05;98326.66;5055800;28;1301;-76
2024/04/06 03:10:17;;;;;;;;;;;;;;;21.43;29.20;98337.75;5053007;28;1405;-75
2024/04/06 03:12:42;;;;;;;;;;;;;;;21.32;29.21;98333.09;5072303;28;1129;-76
2024/04/06 03:15:08;;;;;;;;;;;;;;;21.55;28.86;98337.06;5088840;28;930;-75
2024/04/06 03:17:33;;;;;;;;;;;;;;;21.59;28.66;98329.31;5088220;28;1034;-75
2024/04/06 03:19:59;;;;;;;;;;;;;;;21.36;29.23;98340.72;5070337;28;1401;-75
2024/04/06 03:22:25;;;;;;;;;;;;;;;21.57;29.00;98338.25;5035640;28;1910;-75
2024/04/06 03:24:53;;;;;;;;;;;;;;;21.55;28.99;98337.06;5018782;28;1007;-75
2024/04/06 03:27:18;;;;;;;;;;;;;;;21.53;29.00;98336.72;5035378;28;919;-75
2024/04/06 03:29:44;;;;;;;;;;;;;;;21.43;29.15;98332.06;5039690;28;1376;-75
2024/04/06 03:32:09;;;;;;;;;;;;;;;21.70;28.67;98327.03;5049036;28;1392;-75
2024/04/06 03:34:35;;;;;;;;;;;;;;;21.22;29.54;98328.41;5055404;28;1389;-76
2024/04/06 03:37:00;;;;;;;;;;;;;;;21.62;28.99;98336.94;5086817;28;1281;-75
2024/04/06 03:39:26;;;;;;;;;;;;;;;21.38;29.30;98329.75;5082706;28;1528;-75
2024/04/06 03:41:52;;;;;;;;;;;;;;;21.37;29.47;98325.34;5068046;28;1979;-76
2024/04/06 03:44:17;;;;;;;;;;;;;;;21.46;29.33;98328.38;5036159;28;1161;-75
2024/04/06 03:46:43;;;;;;;;;;;;;;;21.62;29.23;98331.28;5034993;28;1298;-75
2024/04/06 03:49:08;;;;;;;;;;;;;;;21.64;28.99;98342.94;5054315;28;1591;-75
2024/04/06 03:51:34;;;;;;;;;;;;;;;21.65;29.04;98332.41;5054756;28;1084;-75
2024/04/06 03:53:59;;;;;;;;;;;;;;;21.70;29.14;98335.53;5038466;28;1467;-75
2024/04/06 03:56:25;;;;;;;;;;;;;;;21.69;28.89;98339.59;5040826;28;1533;-75
2024/04/06 03:58:51;;;;;;;;;;;;;;;21.90;28.89;98337.53;5068254;28;1006;-75
2024/04/06 04:01:16;;;;;;;;;;;;;;;21.65;29.23;98333.22;5051237;28;1973;-75
2024/04/06 04:03:42;;;;;;;;;;;;;;;21.71;29.02;98339.97;5051437;28;892;-75
2024/04/06 04:06:07;;;;;;;;;;;;;;;21.33;29.51;98340.34;5034844;28;919;-75
2024/04/06 04:08:33;;;;;;;;;;;;;;;21.47;29.42;98339.25;5034971;28;991;-75
2024/04/06 04:10:59;;;;;;;;;;;;;;;21.36;29.45;98332.22;5036075;28;940;-75
2024/04/06 04:13:24;;;;;;;;;;;;;;;21.63;29.17;98335.69;5067965;28;1100;-75
2024/04/06 04:15:50;;;;;;;;;;;;;;;21.42;29.59;98334.13;5035740;28;1099;-75
2024/04/06 04:18:16;;;;;;;;;;;;;;;21.42;29.59;98341.81;5034854;28;968;-76
2024/04/06 04:20:41;;;;;;;;;;;;;;;21.62;29.18;98339.78;5036235;28;1899;-76
2024/04/06 04:23:07;;;;;;;;;;;;;;;21.24;29.86;98331.63;5071545;28;1137;-76
2024/04/06 04:25:32;;;;;;;;;;;;;;;21.45;29.42;98335.25;5070135;28;1142;-76
2024/04/06 04:27:58;;;;;;;;;;;;;;;21.60;29.34;98342.22;5088017;28;945;-76
2024/04/06 04:30:24;;;;;;;;;;;;;;;21.57;29.26;98343.13;5054315;28;1075;-75
2024/04/06 04:32:50;;;;;;;;;;;;;;;21.62;29.17;98345.44;5071185;28;1029;-76
2024/04/06 04:35:15;;;;;;;;;;;;;;;21.46;29.19;98342.53;5071295;28;945;-75
2024/04/06 04:37:41;;;;;;;;;;;;;;;21.61;28.94;98343.84;5055436;28;1018;-75
2024/04/06 04:40:08;;;;;;;;;;;;;;;21.47;29.17;98338.47;5069656;28;827;-75
2024/04/06 04:42:33;;;;;;;;;;;;;;;21.23;29.43;98341.31;5074020;28;1910;-75
2024/04/06 04:45:01;;;;;;;;;;;;;;;21.74;28.99;98344.75;5058308;28;767;-76
2024/04/06 04:47:26;;;;;;;;;;;;;;;21.35;29.22;98347.59;5091864;28;742;-75
2024/04/06 04:49:52;;;;;;;;;;;;;;;21.37;29.61;98342.31;5091801;28;783;-76
2024/04/06 04:52:17;;;;;;;;;;;;;;;21.43;29.15;98343.41;5059974;28;877;-75
2024/04/06 04:54:43;;;;;;;;;;;;;;;21.68;28.87;98343.69;5092025;28;1297;-75
2024/04/06 04:57:09;;;;;;;;;;;;;;;21.49;29.32;98342.44;5074539;28;973;-75
2024/04/06 04:59:35;;;;;;;;;;;;;;;21.42;29.40;98341.81;5058279;28;1129;-75
2024/04/06 05:02:01;;;;;;;;;;;;;;;21.51;29.23;98339.19;5091593;28;1985;-76
2024/04/06 05:04:26;;;;;;;;;;;;;;;21.49;29.03;98341.66;5057866;28;1128;-75
2024/04/06 05:06:52;;;;;;;;;;;;;;;21.74;28.90;98353.25;5074795;28;1212;-76
2024/04/06 05:09:17;;;;;;;;;;;;;;;21.56;29.03;98353.66;5059594;28;1054;-77
2024/04/06 05:11:43;;;;;;;;;;;;;;;21.58;29.00;98356.03;5091737;28;1048;-76
2024/04/06 05:14:08;;;;;;;;;;;;;;;21.57;29.33;98355.22;5074558;28;1110;-75
2024/04/06 05:16:34;;;;;;;;;;;;;;;21.55;29.33;98356.88;5059074;28;906;-76
2024/04/06 05:19:00;;;;;;;;;;;;;;;21.62;29.26;98353.94;5057561;28;1004;-75
2024/04/06 05:21:25;;;;;;;;;;;;;;;21.74;28.90;98364.59;5074542;28;1975;-76
2024/04/06 05:23:51;;;;;;;;;;;;;;;21.66;29.05;98368.81;5058578;28;916;-75
2024/04/06 05:26:17;;;;;;;;;;;;;;;21.63;29.06;98363.22;5091104;28;939;-75
2024/04/06 05:28:42;;;;;;;;;;;;;;;21.68;29.28;98362.72;5058846;28;940;-76
2024/04/06 05:31:08;;;;;;;;;;;;;;;21.57;29.41;98360.09;5074267;28;1161;-75
2024/04/06 05:33:33;;;;;;;;;;;;;;;21.94;28.71;98356.06;5091127;28;936;-77
2024/04/06 05:36:04;;;;;;;;;;;;;;;21.55;29.22;98354.06;5091036;28;955;-76
2024/04/06 05:38:30;;;;;;;;;;;;;;;21.38;29.71;98358.06;5057604;28;1177;-76
2024/04/06 05:40:55;;;;;;;;;;;;;;;21.49;29.51;98359.44;5092816;28;1976;-77
2024/04/06 05:43:21;;;;;;;;;;;;;;;21.76;29.00;98359.28;5076070;28;939;-76
2024/04/06 05:45:46;;;;;;;;;;;;;;;21.64;29.27;98359.94;5075961;28;1316;-77
2024/04/06 05:48:12;;;;;;;;;;;;;;;21.70;29.27;98351.72;5076168;28;984;-76
2024/04/06 05:50:40;;;;;;;;;;;;;;;21.64;29.49;98362.78;5075822;28;1011;-76
2024/04/06 05:53:05;;;;;;;;;;;;;;;21.57;29.38;98362.94;5091376;28;956;-76
2024/04/06 05:55:31;;;;;;;;;;;;;;;21.68;29.21;98360.66;5076103;28;1033;-77
2024/04/06 05:57:57;;;;;;;;;;;;;;;21.68;29.09;98360.66;5092656;28;1002;-77
2024/04/06 06:00:24;;;;;;;;;;;;;;;21.64;29.21;98348.63;5075913;28;1981;-76
2024/04/06 06:02:51;;;;;;;;;;;;;;;21.59;28.87;98361.25;5075775;28;1086;-77
2024/04/06 06:05:17;;;;;;;;;;;;;;;21.29;29.74;98350.91;5075471;28;973;-76
2024/04/06 06:07:42;;;;;;;;;;;;;;;21.24;29.43;98359.94;5042309;28;1186;-76
2024/04/06 06:10:08;;;;;;;;;;;;;;;21.37;29.48;98359.31;5075512;28;1035;-77
2024/04/06 06:12:34;;;;;;;;;;;;;;;21.34;29.42;98360.97;5042289;28;1068;-77
2024/04/06 06:14:59;;;;;;;;;;;;;;;21.35;29.21;98365.41;5058993;28;1044;-76
2024/04/06 06:17:25;;;;;;;;;;;;;;;21.30;29.62;98369.53;5058732;28;1090;-76
2024/04/06 06:19:51;;;;;;;;;;;;;;;21.53;29.11;98370.69;5042359;28;1071;-77
2024/04/06 06:22:16;;;;;;;;;;;;;;;21.35;29.27;98370.25;5058825;28;1914;-77
2024/04/06 06:24:42;;;;;;;;;;;;;;;21.12;29.72;98380.34;5041946;28;1581;-76
2024/04/06 06:27:08;;;;;;;;;;;;;;;21.47;29.12;98372.44;5075273;28;1068;-77
2024/04/06 06:29:34;;;;;;;;;;;;;;;21.41;29.26;98379.84;5058054;28;962;-77
2024/04/06 06:31:59;;;;;;;;;;;;;;;21.50;29.38;98377.22;5075176;28;992;-77
2024/04/06 06:34:25;;;;;;;;;;;;;;;21.65;29.05;98378.53;5075160;28;975;-76
2024/04/06 06:36:51;;;;;;;;;;;;;;;21.62;29.30;98381.44;5058633;28;975;-76
2024/04/06 06:39:16;;;;;;;;;;;;;;;21.56;29.50;98398.16;5074607;28;1134;-77
2024/04/06 06:41:42;;;;;;;;;;;;;;;21.28;29.87;98403.09;5056840;28;1898;-77
2024/04/06 06:44:08;;;;;;;;;;;;;;;21.57;29.49;98402.56;5054961;28;1102;-76
2024/04/06 06:46:33;;;;;;;;;;;;;;;21.42;29.67;98392.75;5054762;28;1028;-77
2024/04/06 06:48:59;;;;;;;;;;;;;;;21.58;29.33;98393.63;5054851;28;1006;-76
2024/04/06 06:51:25;;;;;;;;;;;;;;;21.50;29.59;98388.53;5071604;28;911;-77
2024/04/06 06:53:50;;;;;;;;;;;;;;;21.74;29.22;98404.22;5015032;28;1233;-76
2024/04/06 06:56:16;;;;;;;;;;;;;;;21.55;29.43;98400.19;5031629;28;996;-77
2024/04/06 06:58:42;;;;;;;;;;;;;;;21.58;29.43;98402.13;5014983;28;998;-76
2024/04/06 07:01:07;;;;;;;;;;;;;;;21.63;29.06;98403.66;5046082;28;1909;-77
2024/04/06 07:03:33;;;;;;;;;;;;;;;21.67;29.37;98412.88;5017997;28;1414;-76
2024/04/06 07:05:58;;;;;;;;;;;;;;;21.71;29.15;98404.31;5034457;28;1018;-77
2024/04/06 07:08:24;;;;;;;;;;;;;;;21.42;29.89;98412.59;5018362;28;1612;-77
2024/04/06 07:10:49;;;;;;;;;;;;;;;21.39;29.96;98411.41;5018092;28;1023;-76
2024/04/06 07:13:15;;;;;;;;;;;;;;;21.74;29.27;98404.22;5051094;28;972;-76
2024/04/06 07:15:41;;;;;;;;;;;;;;;21.73;29.09;98402.66;5050963;28;989;-76
2024/04/06 07:18:06;;;;;;;;;;;;;;;21.63;29.41;98409.31;5050784;28;968;-77
2024/04/06 07:20:32;;;;;;;;;;;;;;;21.69;29.46;98407.56;5034554;28;1898;-76
2024/04/06 07:22:57;;;;;;;;;;;;;;;21.57;29.57;98411.88;5017991;28;1150;-77
2024/04/06 07:25:23;;;;;;;;;;;;;;;21.86;29.06;98405.59;5077910;28;1022;-76
2024/04/06 07:27:49;;;;;;;;;;;;;;;21.64;29.55;98404.47;5077159;28;1004;-76
2024/04/06 07:30:14;;;;;;;;;;;;;;;21.64;29.37;98405.25;5060692;28;1245;-76
2024/04/06 07:32:40;;;;;;;;;;;;;;;21.70;29.34;98409.16;5077326;28;953;-77
2024/04/06 07:35:08;;;;;;;;;;;;;;;21.57;29.79;98406.19;5060749;28;1491;-76
2024/04/06 07:37:34;;;;;;;;;;;;;;;21.50;29.63;98411.19;5077161;28;1215;-76
2024/04/06 07:39:59;;;;;;;;;;;;;;;21.49;29.72;98413.22;5060694;28;1214;-76
2024/04/06 07:42:25;;;;;;;;;;;;;;;21.75;29.36;98411.50;5060559;28;1969;-76
2024/04/06 07:44:52;;;;;;;;;;;;;;;21.73;29.31;98419.63;5077231;28;1075;-76
2024/04/06 07:47:17;;;;;;;;;;;;;;;21.79;29.03;98417.88;5093835;28;999;-77
2024/04/06 07:49:43;;;;;;;;;;;;;;;21.69;29.38;98413.25;5060346;28;1169;-77
2024/04/06 07:52:09;;;;;;;;;;;;;;;21.49;29.82;98416.06;5076676;28;982;-76
2024/04/06 07:54:35;;;;;;;;;;;;;;;21.57;29.68;98409.03;5076831;28;1460;-77
2024/04/06 07:57:02;;;;;;;;;;;;;;;21.71;29.49;98405.13;5056711;28;1148;-77
2024/04/06 07:59:28;;;;;;;;;;;;;;;21.42;29.82;98404.09;5025174;28;1041;-76
2024/04/06 08:01:54;;;;;;;;;;;;;;;21.30;30.11;98406.34;5020364;28;1980;-77
2024/04/06 08:04:20;;;;;;;;;;;;;;;21.62;29.27;98398.44;5036985;28;1429;-76
2024/04/06 08:06:45;;;;;;;;;;;;;;;21.60;29.67;98381.88;5037002;28;964;-77
2024/04/06 08:09:11;;;;;;;;;;;;;;;21.44;29.57;98395.94;5053386;28;1042;-76
2024/04/06 08:11:37;;;;;;;;;;;;;;;21.39;29.92;98396.47;5053302;28;1125;-76
2024/04/06 08:14:02;;;;;;;;;;;;;;;21.62;29.41;98381.44;5036587;28;849;-76
2024/04/06 08:16:28;;;;;;;;;;;;;;;21.59;29.50;98383.09;5036112;28;802;-77
2024/04/06 08:18:54;;;;;;;;;;;;;;;21.58;29.53;98390.00;5053180;28;948;-75
2024/04/06 08:21:19;;;;;;;;;;;;;;;21.38;29.88;98394.88;5052678;28;1902;-75
2024/04/06 08:23:45;;;;;;;;;;;;;;;21.54;29.17;98386.44;5036600;28;1008;-76
2024/04/06 08:26:11;;;;;;;;;;;;;;;21.32;29.92;98378.38;5036309;28;782;-75
2024/04/06 08:28:36;;;;;;;;;;;;;;;21.31;30.00;98385.28;5052714;28;896;-75
2024/04/06 08:31:03;;;;;;;;;;;;;;;21.37;29.57;98379.91;5053044;28;1782;-75
2024/04/06 08:33:29;;;;;;;;;;;;;;;21.48;29.57;98379.69;5053214;28;832;-76
2024/04/06 08:36:01;;;;;;;;;;;;;;;21.29;29.80;98375.56;5087386;28;742;-76
2024/04/06 08:38:27;;;;;;;;;;;;;;;21.22;29.87;98379.34;5087352;28;1150;-75
2024/04/06 08:40:52;;;;;;;;;;;;;;;21.25;29.76;98367.19;5087303;28;1954;-75
2024/04/06 08:43:18;;;;;;;;;;;;;;;21.43;29.35;98371.72;5054880;28;850;-75
2024/04/06 08:45:44;;;;;;;;;;;;;;;21.27;29.39;98373.19;5086360;28;888;-75
2024/04/06 08:48:09;;;;;;;;;;;;;;;21.45;29.34;98372.06;5055210;28;815;-76
2024/04/06 08:50:35;;;;;;;;;;;;;;;21.30;29.60;98374.41;5070300;28;841;-76
2024/04/06 08:53:02;;;;;;;;;;;;;;;21.45;28.99;98369.22;5087282;28;807;-76
2024/04/06 08:55:27;;;;;;;;;;;;;;;21.39;29.39;98376.63;5072631;28;895;-76
2024/04/06 08:57:53;;;;;;;;;;;;;;;21.11;29.79;98358.16;5072752;28;1249;-75
2024/04/06 09:00:19;;;;;;;;;;;;;;;21.51;28.91;98361.84;5039293;28;1047;-77
2024/04/06 09:02:44;;;;;;;;;;;;;;;21.56;29.04;98358.50;5056034;28;1919;-76
2024/04/06 09:05:10;;;;;;;;;;;;;;;21.24;29.36;98354.28;5072647;28;940;-75
2024/04/06 09:07:36;;;;;;;;;;;;;;;21.42;29.12;98341.81;5072716;28;809;-75
2024/04/06 09:10:01;;;;;;;;;;;;;;;21.19;29.56;98348.28;5052384;28;995;-76
2024/04/06 09:12:28;;;;;;;;;;;;;;;21.26;29.38;98346.13;5052701;28;901;-76
2024/04/06 09:14:53;;;;;;;;;;;;;;;21.32;29.17;98350.06;5029110;28;980;-76
2024/04/06 09:17:19;;;;;;;;;;;;;;;21.29;29.26;98342.41;5012863;28;762;-76
2024/04/06 09:19:45;;;;;;;;;;;;;;;21.08;29.35;98340.00;5012593;28;803;-76
2024/04/06 09:22:11;;;;;;;;;;;;;;;21.25;29.11;98344.53;5029302;28;1914;-76
2024/04/06 09:24:39;;;;;;;;;;;;;;;21.17;29.37;98348.72;5029146;28;1690;-76
2024/04/06 09:27:05;;;;;;;;;;;;;;;20.98;29.86;98347.47;4981704;28;1005;-76
2024/04/06 09:29:30;;;;;;;;;;;;;;;21.22;29.38;98334.06;4996494;28;936;-76
2024/04/06 09:31:56;;;;;;;;;;;;;;;21.10;29.55;98333.94;4996896;28;810;-76
2024/04/06 09:34:22;;;;;;;;;;;;;;;21.26;29.37;98340.47;4996631;28;687;-77
2024/04/06 09:36:47;;;;;;;;;;;;;;;21.14;29.32;98331.81;4996349;28;993;-76
2024/04/06 09:39:13;;;;;;;;;;;;;;;21.29;29.29;98333.91;4996342;28;1137;-76
2024/04/06 09:41:39;;;;;;;;;;;;;;;21.42;28.81;98336.16;4999656;28;1972;-76
2024/04/06 09:44:04;;;;;;;;;;;;;;;21.22;29.46;98339.72;4999547;28;1660;-76
2024/04/06 09:46:30;;;;;;;;;;;;;;;21.15;29.41;98328.56;5032642;28;799;-76
2024/04/06 09:48:55;;;;;;;;;;;;;;;20.89;29.93;98338.75;5016062;28;715;-76
2024/04/06 09:51:21;;;;;;;;;;;;;;;21.39;28.82;98331.34;5020477;28;809;-76
2024/04/06 09:53:47;;;;;;;;;;;;;;;21.07;29.61;98332.75;5090363;28;849;-76
2024/04/06 09:56:12;;;;;;;;;;;;;;;21.14;29.49;98326.97;5090191;28;746;-76
2024/04/06 09:58:45;;;;;;;;;;;;;;;21.30;28.96;98329.91;5073512;28;842;-76
2024/04/06 10:01:14;;;;;;;;;;;;;;;21.28;29.21;98328.69;5089773;28;1981;-76
2024/04/06 10:03:43;;;;;;;;;;;;;;;21.33;28.74;98323.38;5088885;28;902;-76
2024/04/06 10:06:09;;;;;;;;;;;;;;;21.23;29.28;98318.69;5089775;28;735;-76
2024/04/06 10:08:44;;;;;;;;;;;;;;;21.27;29.14;98308.09;5057401;28;813;-76
2024/04/06 10:11:11;;;;;;;;;;;;;;;21.19;29.27;98301.00;5089711;28;853;-76
2024/04/06 10:13:37;;;;;;;;;;;;;;;21.25;28.96;98304.13;5095110;28;981;-76
2024/04/06 10:16:06;;;;;;;;;;;;;;;21.24;29.40;98291.19;5078286;28;1127;-76
2024/04/06 10:18:31;;;;;;;;;;;;;;;21.17;29.46;98297.00;5061604;28;963;-76
2024/04/06 10:20:58;;;;;;;;;;;;;;;21.03;29.50;98289.59;5094009;28;1905;-76
2024/04/06 10:23:24;;;;;;;;;;;;;;;21.12;29.40;98295.47;5075080;28;855;-76
2024/04/06 10:25:59;;;;;;;;;;;;;;;20.89;29.72;98301.19;5075201;28;852;-76
2024/04/06 10:28:25;;;;;;;;;;;;;;;21.26;29.21;98298.03;5058318;28;1293;-76
2024/04/06 10:30:50;;;;;;;;;;;;;;;21.07;29.34;98293.94;5075185;28;967;-76
2024/04/06 10:33:16;;;;;;;;;;;;;;;21.11;29.11;98291.06;5074981;28;1158;-77
2024/04/06 10:35:41;;;;;;;;;;;;;;;21.36;28.90;98298.28;5058235;28;1257;-76
2024/04/06 10:38:07;;;;;;;;;;;;;;;21.08;29.18;98301.19;5074304;28;1288;-76
2024/04/06 10:40:37;;;;;;;;;;;;;;;20.91;29.39;98301.53;5057060;28;1974;-76
2024/04/06 10:43:02;;;;;;;;;;;;;;;20.96;29.62;98303.88;5074759;28;987;-76
2024/04/06 10:45:28;;;;;;;;;;;;;;;21.23;28.99;98298.88;5006910;28;914;-76
2024/04/06 10:47:54;;;;;;;;;;;;;;;21.24;28.98;98303.31;5014747;28;960;-76
2024/04/06 10:50:19;;;;;;;;;;;;;;;21.38;28.83;98307.91;5030910;28;867;-76
2024/04/06 10:52:47;;;;;;;;;;;;;;;21.23;28.98;98301.72;4998376;28;926;-76
2024/04/06 10:55:19;;;;;;;;;;;;;;;21.17;29.10;98303.44;5014124;28;846;-76
2024/04/06 10:57:44;;;;;;;;;;;;;;;21.10;29.43;98292.28;5030415;28;793;-76
2024/04/06 11:00:11;;;;;;;;;;;;;;;21.19;29.10;98292.50;5014577;28;1038;-76
2024/04/06 11:02:37;;;;;;;;;;;;;;;21.14;29.08;98298.69;5031306;28;1906;-76
2024/04/06 11:05:02;;;;;;;;;;;;;;;21.09;28.90;98293.53;5031327;28;939;-76
2024/04/06 11:07:29;;;;;;;;;;;;;;;21.04;29.22;98294.03;5033219;28;974;-76
2024/04/06 11:09:54;;;;;;;;;;;;;;;21.19;28.95;98289.69;5036773;28;956;-76
2024/04/06 11:12:20;;;;;;;;;;;;;;;21.21;28.88;98287.22;5068257;28;951;-76
2024/04/06 11:14:51;;;;;;;;;;;;;;;21.28;28.84;98281.38;5036694;28;859;-77
2024/04/06 11:17:18;;;;;;;;;;;;;;;20.96;29.15;98276.38;5018874;28;1136;-77
2024/04/06 11:19:43;;;;;;;;;;;;;;;21.18;28.83;98271.09;5036445;28;727;-76
2024/04/06 11:22:09;;;;;;;;;;;;;;;21.15;28.87;98266.31;5068147;28;1894;-77
2024/04/06 11:24:34;;;;;;;;;;;;;;;21.02;29.03;98259.69;5035383;28;1247;-77
2024/04/06 11:27:07;;;;;;;;;;;;;;;20.96;29.26;98261.44;5068390;28;1033;-76
2024/04/06 11:29:32;;;;;;;;;;;;;;;21.03;29.14;98252.81;5035047;28;1094;-76
2024/04/06 11:31:58;;;;;;;;;;;;;;;21.07;28.83;98254.31;5051814;28;1606;-76
2024/04/06 11:34:24;;;;;;;;;;;;;;;21.17;28.87;98249.69;5035123;28;1124;-76
2024/04/06 11:36:49;;;;;;;;;;;;;;;21.12;29.08;98250.19;5068476;28;920;-76
2024/04/06 11:39:15;;;;;;;;;;;;;;;21.35;28.74;98240.03;5061943;28;1350;-76
2024/04/06 11:41:40;;;;;;;;;;;;;;;21.30;29.03;98239.34;5042053;28;1963;-76
2024/04/06 11:44:06;;;;;;;;;;;;;;;21.05;29.50;98233.38;5025226;28;1257;-76
2024/04/06 11:46:32;;;;;;;;;;;;;;;21.41;29.16;98232.66;5000241;28;1644;-76
2024/04/06 11:48:58;;;;;;;;;;;;;;;21.45;29.04;98216.34;5013757;28;967;-76
2024/04/06 11:51:23;;;;;;;;;;;;;;;21.41;29.07;98222.13;5013775;28;1687;-76
2024/04/06 11:53:49;;;;;;;;;;;;;;;21.56;28.72;98229.06;5013951;28;1014;-76
2024/04/06 11:56:15;;;;;;;;;;;;;;;21.47;29.11;98219.56;5029991;28;921;-76
2024/04/06 11:58:41;;;;;;;;;;;;;;;21.26;29.44;98226.47;5013588;28;1015;-76
2024/04/06 12:01:06;;;;;;;;;;;;;;;21.32;29.49;98217.03;5013624;28;1914;-76
2024/04/06 12:03:32;;;;;;;;;;;;;;;21.29;29.54;98215.06;5013683;28;1028;-76
2024/04/06 12:05:58;;;;;;;;;;;;;;;21.40;29.33;98209.22;5013197;28;1138;-77
2024/04/06 12:08:23;;;;;;;;;;;;;;;21.21;29.77;98196.66;4980977;28;1054;-77
2024/04/06 12:10:49;;;;;;;;;;;;;;;21.38;29.42;98186.19;5013771;28;986;-76
2024/04/06 12:13:14;;;;;;;;;;;;;;;21.61;29.00;98185.28;5013231;28;1050;-77
2024/04/06 12:15:40;;;;;;;;;;;;;;;21.41;29.20;98187.34;5014089;28;1009;-76
2024/04/06 12:18:08;;;;;;;;;;;;;;;21.25;29.68;98191.72;5000636;28;983;-76
2024/04/06 12:20:34;;;;;;;;;;;;;;;21.28;29.53;98190.03;5053011;28;1053;-76
2024/04/06 12:22:59;;;;;;;;;;;;;;;21.45;29.51;98193.72;5036177;28;2039;-76
2024/04/06 12:25:25;;;;;;;;;;;;;;;21.21;29.70;98185.34;5036505;28;1515;-76
2024/04/06 12:27:51;;;;;;;;;;;;;;;21.44;29.52;98180.81;5053155;28;1041;-77
2024/04/06 12:30:16;;;;;;;;;;;;;;;21.72;29.10;98174.47;5019873;28;976;-76
2024/04/06 12:32:43;;;;;;;;;;;;;;;21.64;29.00;98178.72;5052895;28;1248;-76
2024/04/06 12:35:08;;;;;;;;;;;;;;;21.49;29.52;98172.56;5036557;28;961;-76
2024/04/06 12:37:34;;;;;;;;;;;;;;;21.61;29.10;98167.50;5050683;28;1184;-76
2024/04/06 12:40:00;;;;;;;;;;;;;;;21.26;29.76;98169.88;5056153;28;1225;-77
2024/04/06 12:42:25;;;;;;;;;;;;;;;21.47;29.63;98158.09;5072810;28;1930;-77
2024/04/06 12:44:51;;;;;;;;;;;;;;;21.49;29.50;98161.25;5073084;28;1039;-76
2024/04/06 12:47:16;;;;;;;;;;;;;;;21.66;29.11;98164.91;5072855;28;1047;-76
2024/04/06 12:49:42;;;;;;;;;;;;;;;21.56;29.47;98155.44;5072729;28;933;-76
2024/04/06 12:52:07;;;;;;;;;;;;;;;21.25;29.99;98159.78;5073229;28;998;-76